Hovedside
METAR-TAF:

METAR-TAF

Lufthavner :

Kristianstad, Sverige

breddegrad: 55-55N, lengdegrad: 014-05E, høyde over havet: 23 m

Gjeldene værobservasjon

Denne rapporten ble laget for 37 minutter siden, klokken 04:20 UTC
Vind 12 kt fra Vest med vindkast opp mot 23 kt, skiftende mellom Sørvest og Vest-nordvest
Temperatur 17°C
Luftfuktighet 77%
Trykk 1006 hPa
Sikt 10 km eller mer

METAR: ESMK 210420Z AUTO 26012G23KT 220V300 9999 SCT017/// BKN037/// 17/13 Q1006

Tid: 06:57 (04:57 UTC)

Varsel

Denne rapporten ble laget for 1 time og 49 minutter siden, klokken 03:08 UTC
Varsel gyldig fra 21. klokken 04 UTC til 21. klokken 08 UTC
Vind 15 kt fra Vest-sørvest
Sikt 10 km eller mer
Brutte skyer i en høyde av 3000 ft
Midlertidig
fra 21. klokken 04 UTC til 21. klokken 08 UTC
Brutte skyer i en høyde av 1200 ft
lett duskregn

TAF: ESMK 210308Z 2104/2108 25015KT 9999 BKN030 TEMPO 2104/2108 -DZ BKN012

Værobservasjoner og værvarsel for over 4000 flyplasser (METAR- og TAF-rapporter).

Tilgjengelige stasjoner er representert av de røde og gule prikkene på kartet.

Hold musepekeren over prikken for å se navnet på stasjonen.

Klikk så for å se værobservasjoner og -varsler.

For å forandre kartet kan du klikke på den grønne knappen med svart kryss for å zoome inn, på den grønne knappen med strek for å zoome ut, eller på de grønne pilene for å se tilstøtende kart.


METAR-TAF: